createdAt,value
2019-01-18T00:02:01.954Z,100.00
2019-01-18T00:04:33.406Z,100.00
2019-01-18T00:07:04.860Z,100.00
2019-01-18T00:09:36.199Z,100.00
2019-01-18T00:12:07.610Z,100.00
2019-01-18T00:14:38.993Z,100.00
2019-01-18T00:17:10.310Z,100.00
2019-01-18T00:19:41.634Z,100.00
2019-01-18T00:22:14.349Z,100.00
2019-01-18T00:24:46.191Z,100.00
2019-01-18T00:27:20.746Z,100.00
2019-01-18T00:29:52.263Z,100.00
2019-01-18T00:32:32.371Z,100.00
2019-01-18T00:35:32.070Z,100.00
2019-01-18T00:38:22.878Z,100.00
2019-01-18T00:41:19.899Z,100.00
2019-01-18T00:44:10.762Z,100.00
2019-01-18T00:46:49.190Z,100.00
2019-01-18T00:49:20.641Z,100.00
2019-01-18T00:51:52.033Z,100.00
2019-01-18T00:54:23.576Z,100.00
2019-01-18T00:56:54.919Z,100.00
2019-01-18T00:59:26.307Z,100.00
2019-01-18T01:01:57.688Z,100.00
2019-01-18T01:04:29.445Z,100.00
2019-01-18T01:07:00.664Z,100.00
2019-01-18T01:09:32.529Z,100.00
2019-01-18T01:12:05.361Z,100.00
2019-01-18T01:14:36.854Z,100.00
2019-01-18T01:17:08.720Z,100.00
2019-01-18T01:19:40.212Z,100.00
2019-01-18T01:22:11.568Z,100.00
2019-01-18T01:24:43.040Z,100.00
2019-01-18T01:27:14.563Z,100.00
2019-01-18T01:29:46.015Z,100.00
2019-01-18T01:32:17.491Z,100.00
2019-01-18T01:34:49.025Z,100.00
2019-01-18T01:37:20.561Z,100.00
2019-01-18T01:39:51.983Z,100.00
2019-01-18T01:42:23.451Z,100.00
2019-01-18T01:44:54.988Z,100.00
2019-01-18T01:47:26.455Z,100.00
2019-01-18T01:49:57.996Z,100.00
2019-01-18T01:52:29.579Z,100.00
2019-01-18T01:55:01.372Z,100.00
2019-01-18T01:57:32.861Z,100.00
2019-01-18T02:00:06.034Z,100.00
2019-01-18T02:02:37.549Z,100.00
2019-01-18T02:05:09.259Z,100.00
2019-01-18T02:07:40.688Z,100.00
2019-01-18T02:10:13.734Z,100.00
2019-01-18T02:12:45.288Z,100.00
2019-01-18T02:15:19.230Z,100.00
2019-01-18T02:17:50.855Z,100.00
2019-01-18T02:20:23.093Z,100.00
2019-01-18T02:22:54.727Z,100.00
2019-01-18T02:25:26.059Z,100.00
2019-01-18T02:27:57.509Z,100.00
2019-01-18T02:30:31.690Z,100.00
2019-01-18T02:33:03.221Z,100.00
2019-01-18T02:35:34.576Z,100.00
2019-01-18T02:38:06.392Z,100.00
2019-01-18T02:40:37.741Z,100.00
2019-01-18T02:43:09.143Z,100.00
2019-01-18T02:45:40.491Z,100.00
2019-01-18T02:48:11.852Z,100.00
2019-01-18T02:50:43.389Z,100.00
2019-01-18T02:53:14.833Z,100.00
2019-01-18T02:55:46.272Z,100.00
2019-01-18T02:58:17.711Z,100.00
2019-01-18T03:00:49.161Z,100.00
2019-01-18T03:03:20.709Z,100.00
2019-01-18T03:05:52.137Z,100.00
2019-01-18T03:08:23.574Z,100.00
2019-01-18T03:10:54.766Z,100.00
2019-01-18T03:13:26.172Z,100.00
2019-01-18T03:15:57.546Z,100.00
2019-01-18T03:18:29.078Z,100.00
2019-01-18T03:21:00.480Z,100.00
2019-01-18T03:23:31.789Z,100.00
2019-01-18T03:26:03.341Z,100.00
2019-01-18T03:28:34.733Z,100.00
2019-01-18T03:31:06.186Z,100.00
2019-01-18T03:33:37.550Z,100.00
2019-01-18T03:36:08.991Z,100.00
2019-01-18T03:38:40.428Z,100.00
2019-01-18T03:41:11.901Z,100.00
2019-01-18T03:43:43.223Z,100.00
2019-01-18T03:46:14.636Z,100.00
2019-01-18T03:48:45.909Z,100.00
2019-01-18T03:51:17.440Z,100.00
2019-01-18T03:53:48.825Z,100.00
2019-01-18T03:56:20.278Z,100.00
2019-01-18T03:58:51.714Z,100.00
2019-01-18T04:01:23.188Z,100.00
2019-01-18T04:03:54.599Z,100.00
2019-01-18T04:06:26.037Z,100.00
2019-01-18T04:08:57.481Z,100.00
2019-01-18T04:11:29.080Z,100.00
2019-01-18T04:14:01.601Z,100.00
2019-01-18T04:16:33.291Z,100.00
2019-01-18T04:19:04.659Z,100.00
2019-01-18T04:21:36.074Z,100.00
2019-01-18T04:24:07.487Z,100.00
2019-01-18T04:26:38.980Z,100.00
2019-01-18T04:29:10.570Z,100.00
2019-01-18T04:31:42.008Z,100.00
2019-01-18T04:34:13.430Z,100.00
2019-01-18T04:36:44.812Z,100.00
2019-01-18T04:39:16.300Z,100.00
2019-01-18T04:41:47.781Z,100.00
2019-01-18T04:44:19.150Z,100.00
2019-01-18T04:46:50.590Z,100.00
2019-01-18T04:49:22.038Z,100.00
2019-01-18T04:51:53.277Z,100.00
2019-01-18T04:54:24.581Z,100.00
2019-01-18T04:56:55.957Z,100.00
2019-01-18T04:59:27.367Z,100.00
2019-01-18T05:01:58.786Z,100.00
2019-01-18T05:04:32.019Z,100.00
2019-01-18T05:07:03.679Z,100.00
2019-01-18T05:09:35.296Z,100.00
2019-01-18T05:12:06.747Z,100.00
2019-01-18T05:14:38.335Z,100.00
2019-01-18T05:17:09.844Z,100.00
2019-01-18T05:19:41.642Z,100.00
2019-01-18T05:22:13.132Z,100.00
2019-01-18T05:24:49.325Z,100.00
2019-01-18T05:27:17.769Z,100.00
2019-01-18T05:29:49.189Z,100.00
2019-01-18T05:32:20.581Z,100.00
2019-01-18T05:34:51.913Z,100.00
2019-01-18T05:37:23.367Z,100.00
2019-01-18T05:39:54.844Z,100.00
2019-01-18T05:42:26.333Z,100.00
2019-01-18T05:44:57.807Z,100.00
2019-01-18T05:47:29.145Z,100.00
2019-01-18T05:51:23.768Z,100.00
2019-01-18T05:54:02.797Z,100.00
2019-01-18T05:56:34.209Z,100.00
2019-01-18T05:59:05.684Z,100.00
2019-01-18T06:01:37.321Z,100.00
2019-01-18T06:04:10.241Z,100.00
2019-01-18T06:06:41.940Z,100.00
2019-01-18T06:09:13.448Z,100.00
2019-01-18T06:11:44.961Z,100.00
2019-01-18T06:14:16.516Z,100.00
2019-01-18T06:16:48.020Z,100.00
2019-01-18T06:19:19.491Z,100.00
2019-01-18T06:21:50.792Z,100.00
2019-01-18T06:24:22.258Z,100.00
2019-01-18T06:26:53.716Z,100.00
2019-01-18T06:29:25.314Z,100.00
2019-01-18T06:31:56.661Z,100.00
2019-01-18T06:34:28.061Z,100.00
2019-01-18T06:37:06.733Z,100.00
2019-01-18T06:39:38.221Z,100.00
2019-01-18T06:42:13.666Z,100.00
2019-01-18T06:44:47.300Z,100.00
2019-01-18T06:47:18.750Z,100.00
2019-01-18T06:49:50.199Z,100.00
2019-01-18T06:52:21.546Z,100.00
2019-01-18T06:54:53.001Z,100.00
2019-01-18T06:57:24.473Z,100.00
2019-01-18T06:59:55.940Z,100.00
2019-01-18T07:02:27.676Z,100.00
2019-01-18T07:04:59.757Z,100.00
2019-01-18T07:07:31.353Z,100.00
2019-01-18T07:10:03.040Z,100.00
2019-01-18T07:12:34.772Z,100.00
2019-01-18T07:15:09.418Z,100.00
2019-01-18T07:17:40.862Z,100.00
2019-01-18T07:20:13.932Z,100.00
2019-01-18T07:22:45.540Z,100.00
2019-01-18T07:25:19.401Z,100.00
2019-01-18T07:27:50.758Z,100.00
2019-01-18T07:30:24.955Z,100.00
2019-01-18T07:32:56.562Z,100.00
2019-01-18T07:35:28.225Z,100.00
2019-01-18T07:37:59.859Z,100.00
2019-01-18T07:40:31.345Z,100.00
2019-01-18T07:43:02.875Z,100.00
2019-01-18T07:45:34.393Z,100.00
2019-01-18T07:48:06.113Z,100.00
2019-01-18T07:50:37.554Z,100.00
2019-01-18T07:53:09.118Z,100.00
2019-01-18T07:55:40.579Z,100.00
2019-01-18T07:58:11.980Z,100.00
2019-01-18T08:00:43.580Z,100.00
2019-01-18T08:03:15.129Z,100.00
2019-01-18T08:05:47.029Z,100.00
2019-01-18T08:08:18.615Z,100.00
2019-01-18T08:10:51.242Z,100.00
2019-01-18T08:13:22.771Z,100.00
2019-01-18T08:15:54.295Z,100.00
2019-01-18T08:18:25.900Z,100.00
2019-01-18T08:21:15.208Z,100.00
2019-01-18T08:23:56.492Z,100.00
2019-01-18T08:26:27.931Z,100.00
2019-01-18T08:28:59.369Z,100.00
2019-01-18T08:31:30.947Z,98.62
2019-01-18T08:34:02.526Z,99.08
2019-01-18T08:36:34.014Z,95.56
2019-01-18T08:39:08.233Z,96.09
2019-01-18T08:41:39.863Z,96.21
2019-01-18T08:44:11.205Z,94.55
2019-01-18T08:46:42.842Z,93.39
2019-01-18T08:49:14.391Z,93.34
2019-01-18T08:51:45.906Z,91.60
2019-01-18T08:54:17.352Z,89.99
2019-01-18T08:56:48.870Z,89.11
2019-01-18T08:59:20.330Z,87.80
2019-01-18T09:01:51.850Z,87.51
2019-01-18T09:04:23.299Z,87.25
2019-01-18T09:06:54.745Z,86.17
2019-01-18T09:09:26.381Z,86.08
2019-01-18T09:11:57.759Z,83.22
2019-01-18T09:14:29.202Z,84.15
2019-01-18T09:17:00.631Z,82.52
2019-01-18T09:19:32.224Z,79.91
2019-01-18T09:22:12.328Z,80.28
2019-01-18T09:24:43.766Z,79.84
2019-01-18T09:27:15.219Z,78.70
2019-01-18T09:29:46.740Z,79.31
2019-01-18T09:32:18.441Z,76.29
2019-01-18T09:34:50.033Z,76.00
2019-01-18T09:37:21.641Z,74.34
2019-01-18T09:40:03.136Z,74.37
2019-01-18T09:42:36.707Z,74.31
2019-01-18T09:45:09.441Z,72.97
2019-01-18T09:47:40.933Z,71.45
2019-01-18T09:50:22.133Z,72.35
2019-01-18T09:52:56.640Z,69.95
2019-01-18T09:55:29.019Z,69.83
2019-01-18T09:58:00.431Z,69.09
2019-01-18T10:00:36.871Z,69.09
2019-01-18T10:03:08.241Z,66.86
2019-01-18T10:05:39.738Z,65.33
2019-01-18T10:08:12.918Z,63.42
2019-01-18T10:10:44.387Z,62.89
2019-01-18T10:13:15.858Z,62.62
2019-01-18T10:15:48.300Z,60.75
2019-01-18T10:18:19.748Z,60.36
2019-01-18T10:20:52.021Z,59.12
2019-01-18T10:23:23.418Z,61.76
2019-01-18T10:25:54.846Z,58.40
2019-01-18T10:28:26.445Z,58.29
2019-01-18T10:30:58.046Z,57.28
2019-01-18T10:33:29.515Z,57.94
2019-01-18T10:36:01.007Z,56.98
2019-01-18T10:38:32.357Z,57.09
2019-01-18T10:41:03.803Z,56.46
2019-01-18T10:43:35.118Z,55.93
2019-01-18T10:46:06.500Z,55.40
2019-01-18T10:48:37.921Z,56.56
2019-01-18T10:51:09.471Z,55.85
2019-01-18T10:53:40.936Z,53.84
2019-01-18T10:56:12.416Z,53.85
2019-01-18T10:58:43.819Z,54.63
2019-01-18T11:01:15.202Z,53.47
2019-01-18T11:03:46.725Z,53.60
2019-01-18T11:06:18.189Z,53.45
2019-01-18T11:08:49.607Z,54.14
2019-01-18T11:11:21.087Z,53.83
2019-01-18T11:13:52.305Z,52.21
2019-01-18T11:16:25.026Z,54.52
2019-01-18T11:18:56.696Z,52.89
2019-01-18T11:21:28.199Z,51.96
2019-01-18T11:23:59.676Z,51.96
2019-01-18T11:26:31.117Z,51.95
2019-01-18T11:29:02.653Z,51.89
2019-01-18T11:31:33.943Z,53.35
2019-01-18T11:34:05.411Z,53.35
2019-01-18T11:36:36.971Z,53.63
2019-01-18T11:39:09.469Z,54.22
2019-01-18T11:41:40.844Z,53.48
2019-01-18T11:44:12.102Z,54.41
2019-01-18T11:46:43.452Z,55.34
2019-01-18T11:49:14.865Z,55.03
2019-01-18T11:51:46.253Z,57.70
2019-01-18T11:54:17.756Z,61.04
2019-01-18T11:56:49.449Z,60.15
2019-01-18T11:59:20.970Z,61.74
2019-01-18T12:01:52.413Z,62.24
2019-01-18T12:04:23.833Z,62.24
2019-01-18T12:06:55.269Z,63.28
2019-01-18T12:09:26.728Z,64.00
2019-01-18T12:11:58.012Z,64.21
2019-01-18T12:14:29.431Z,64.85
2019-01-18T12:17:00.971Z,67.43
2019-01-18T12:19:33.592Z,68.99
2019-01-18T12:22:05.174Z,69.13
2019-01-18T12:24:36.781Z,69.64
2019-01-18T12:27:08.309Z,69.64
2019-01-18T12:29:39.723Z,68.31
2019-01-18T12:32:11.244Z,68.90
2019-01-18T12:34:42.800Z,68.90
2019-01-18T12:37:14.312Z,68.50
2019-01-18T12:39:45.692Z,70.40
2019-01-18T12:42:17.093Z,72.32
2019-01-18T12:44:48.451Z,72.02
2019-01-18T12:47:19.960Z,71.45
2019-01-18T12:49:51.412Z,72.70
2019-01-18T12:52:22.940Z,72.46
2019-01-18T12:54:54.449Z,71.64
2019-01-18T12:57:25.860Z,72.57
2019-01-18T12:59:57.351Z,72.75
2019-01-18T13:02:35.180Z,74.53
2019-01-18T13:05:02.145Z,75.29
2019-01-18T13:07:33.653Z,74.86
2019-01-18T13:10:11.606Z,75.54
2019-01-18T13:12:38.489Z,74.63
2019-01-18T13:15:14.358Z,74.69
2019-01-18T13:17:45.793Z,75.56
2019-01-18T13:20:17.458Z,73.91
2019-01-18T13:22:49.040Z,73.02
2019-01-18T13:25:20.622Z,71.80
2019-01-18T13:27:52.222Z,73.12
2019-01-18T13:30:23.573Z,74.85
2019-01-18T13:32:55.034Z,74.60
2019-01-18T13:35:27.648Z,73.87
2019-01-18T13:37:59.289Z,73.81
2019-01-18T13:40:30.827Z,74.95
2019-01-18T13:43:02.264Z,75.71
2019-01-18T13:45:33.754Z,74.40
2019-01-18T13:48:05.382Z,75.59
2019-01-18T13:50:36.951Z,74.48
2019-01-18T13:53:09.514Z,74.67
2019-01-18T13:55:40.999Z,74.97
2019-01-18T13:58:12.431Z,74.59
2019-01-18T14:00:43.937Z,76.18
2019-01-18T14:03:15.419Z,76.86
2019-01-18T14:05:46.909Z,76.34
2019-01-18T14:08:18.431Z,75.93
2019-01-18T14:10:49.848Z,76.37
2019-01-18T14:13:21.477Z,75.25
2019-01-18T14:15:52.967Z,75.24
2019-01-18T14:18:24.403Z,74.71
2019-01-18T14:20:55.940Z,75.52
2019-01-18T14:23:27.362Z,76.29
2019-01-18T14:25:58.841Z,76.52
2019-01-18T14:28:30.382Z,77.18
2019-01-18T14:31:01.997Z,78.36
2019-01-18T14:33:33.577Z,80.27
2019-01-18T14:36:05.232Z,80.98
2019-01-18T14:38:36.695Z,81.52
2019-01-18T14:41:08.146Z,81.62
2019-01-18T14:43:39.653Z,81.84
2019-01-18T14:46:11.187Z,81.83
2019-01-18T14:48:42.703Z,82.50
2019-01-18T14:51:14.082Z,82.89
2019-01-18T14:53:45.539Z,82.57
2019-01-18T14:56:16.911Z,83.20
2019-01-18T14:58:48.459Z,83.56
2019-01-18T15:01:19.809Z,83.81
2019-01-18T15:03:54.177Z,84.02
2019-01-18T15:06:24.467Z,84.44
2019-01-18T15:08:55.960Z,84.60
2019-01-18T15:11:27.582Z,84.96
2019-01-18T15:13:58.950Z,85.39
2019-01-18T15:16:30.377Z,85.99
2019-01-18T15:19:01.979Z,85.47
2019-01-18T15:21:33.314Z,86.35
2019-01-18T15:24:05.104Z,86.82
2019-01-18T15:26:36.395Z,89.20
2019-01-18T15:29:07.881Z,90.96
2019-01-18T15:31:39.296Z,92.95
2019-01-18T15:34:10.693Z,94.41
2019-01-18T15:36:42.015Z,95.02
2019-01-18T15:39:14.357Z,96.19
2019-01-18T15:41:45.697Z,97.40
2019-01-18T15:44:17.219Z,98.54
2019-01-18T15:46:48.709Z,99.00
2019-01-18T15:49:20.133Z,100.00
2019-01-18T15:51:51.591Z,100.00
2019-01-18T15:54:23.028Z,100.00
2019-01-18T15:56:54.452Z,100.00
2019-01-18T15:59:26.078Z,100.00
2019-01-18T16:01:57.620Z,100.00
2019-01-18T16:04:29.085Z,100.00
2019-01-18T16:07:01.462Z,100.00
2019-01-18T16:09:33.049Z,100.00
2019-01-18T16:12:04.595Z,100.00
2019-01-18T16:14:36.063Z,100.00
2019-01-18T16:17:12.731Z,100.00
2019-01-18T16:19:44.338Z,100.00
2019-01-18T16:22:15.689Z,100.00
2019-01-18T16:24:47.048Z,100.00
2019-01-18T16:27:18.483Z,100.00
2019-01-18T16:29:49.874Z,100.00
2019-01-18T16:32:21.924Z,100.00
2019-01-18T16:34:53.410Z,100.00
2019-01-18T16:37:24.942Z,100.00
2019-01-18T16:39:56.488Z,100.00
2019-01-18T16:42:28.065Z,100.00
2019-01-18T16:44:59.573Z,100.00
2019-01-18T16:47:30.950Z,100.00
2019-01-18T16:50:02.462Z,100.00
2019-01-18T16:52:33.846Z,100.00
2019-01-18T16:55:05.823Z,100.00
2019-01-18T16:57:37.236Z,100.00
2019-01-18T17:00:20.600Z,100.00
2019-01-18T17:02:52.154Z,100.00
2019-01-18T17:05:27.304Z,100.00
2019-01-18T17:08:00.164Z,100.00
2019-01-18T17:10:31.651Z,100.00
2019-01-18T17:13:03.019Z,100.00
2019-01-18T17:15:34.468Z,100.00
2019-01-18T17:18:06.231Z,100.00
2019-01-18T17:20:40.355Z,100.00
2019-01-18T17:23:11.946Z,100.00
2019-01-18T17:25:43.486Z,100.00
2019-01-18T17:28:14.938Z,100.00
2019-01-18T17:30:46.405Z,100.00
2019-01-18T17:33:17.883Z,100.00
2019-01-18T17:36:00.142Z,100.00
2019-01-18T17:39:08.081Z,100.00
2019-01-18T17:42:11.270Z,100.00
2019-01-18T17:45:32.410Z,100.00
2019-01-18T17:48:36.594Z,100.00
2019-01-18T17:51:42.198Z,100.00
2019-01-18T17:54:38.600Z,100.00
2019-01-18T17:57:33.790Z,100.00
2019-01-18T18:00:32.319Z,100.00
2019-01-18T18:03:36.749Z,100.00
2019-01-18T18:06:46.133Z,100.00
2019-01-18T18:09:37.197Z,100.00
2019-01-18T18:13:07.372Z,100.00
2019-01-18T18:16:14.978Z,100.00
2019-01-18T18:19:21.527Z,100.00
2019-01-18T18:22:08.657Z,100.00
2019-01-18T18:25:10.268Z,100.00
2019-01-18T18:28:03.196Z,100.00
2019-01-18T18:30:57.688Z,100.00
2019-01-18T18:33:52.406Z,100.00
2019-01-18T18:36:56.345Z,100.00
2019-01-18T18:40:12.698Z,100.00
2019-01-18T18:43:15.313Z,100.00
2019-01-18T18:46:12.080Z,100.00
2019-01-18T18:49:19.109Z,100.00
2019-01-18T18:52:20.396Z,100.00
2019-01-18T18:55:29.471Z,100.00
2019-01-18T18:58:41.278Z,100.00
2019-01-18T19:01:41.754Z,100.00
2019-01-18T19:04:48.576Z,100.00
2019-01-18T19:08:03.576Z,100.00
2019-01-18T19:11:00.623Z,100.00
2019-01-18T19:14:06.182Z,100.00
2019-01-18T19:17:26.437Z,100.00
2019-01-18T19:20:56.182Z,100.00
2019-01-18T19:23:53.514Z,100.00
2019-01-18T19:27:05.371Z,100.00
2019-01-18T19:30:04.283Z,100.00
2019-01-18T19:33:20.510Z,100.00
2019-01-18T19:36:27.975Z,100.00
2019-01-18T19:39:34.463Z,100.00
2019-01-18T19:42:28.872Z,100.00
2019-01-18T19:45:32.566Z,100.00
2019-01-18T19:48:33.205Z,100.00
2019-01-18T19:51:44.874Z,100.00
2019-01-18T19:55:08.900Z,100.00
2019-01-18T19:58:03.992Z,100.00
2019-01-18T20:01:05.546Z,100.00
2019-01-18T20:04:21.701Z,100.00
2019-01-18T20:07:21.242Z,100.00
2019-01-18T20:10:41.209Z,100.00
2019-01-18T20:13:54.057Z,100.00
2019-01-18T20:16:41.245Z,100.00
2019-01-18T20:19:38.937Z,100.00
2019-01-18T20:22:32.188Z,100.00
2019-01-18T20:25:22.697Z,100.00
2019-01-18T20:28:31.881Z,100.00
2019-01-18T20:31:41.302Z,100.00
2019-01-18T20:34:40.750Z,100.00
2019-01-18T20:38:07.212Z,100.00
2019-01-18T20:41:14.795Z,100.00
2019-01-18T20:44:00.459Z,100.00
2019-01-18T20:47:18.407Z,100.00
2019-01-18T20:50:39.144Z,100.00
2019-01-18T20:53:19.390Z,100.00
2019-01-18T20:56:28.366Z,100.00
2019-01-18T20:59:14.030Z,100.00
2019-01-18T21:02:36.982Z,100.00
2019-01-18T21:05:54.424Z,100.00
2019-01-18T21:09:09.750Z,100.00
2019-01-18T21:12:14.560Z,100.00
2019-01-18T21:15:20.281Z,100.00
2019-01-18T21:18:20.388Z,100.00
2019-01-18T21:21:50.770Z,100.00
2019-01-18T21:24:46.966Z,100.00
2019-01-18T21:27:54.237Z,100.00
2019-01-18T21:31:03.360Z,100.00
2019-01-18T21:34:33.077Z,100.00
2019-01-18T21:37:30.365Z,100.00
2019-01-18T21:40:29.758Z,100.00
2019-01-18T21:43:46.675Z,100.00
2019-01-18T21:47:06.615Z,100.00
2019-01-18T21:50:03.394Z,100.00
2019-01-18T21:53:09.913Z,100.00
2019-01-18T21:56:01.821Z,100.00
2019-01-18T21:59:13.069Z,100.00
2019-01-18T22:02:22.441Z,100.00
2019-01-18T22:05:14.009Z,100.00
2019-01-18T22:08:34.869Z,100.00
2019-01-18T22:11:21.131Z,100.00
2019-01-18T22:14:37.415Z,100.00
2019-01-18T22:17:49.615Z,100.00
2019-01-18T22:21:01.234Z,100.00
2019-01-18T22:23:56.514Z,100.00
2019-01-18T22:27:23.444Z,100.00
2019-01-18T22:30:45.920Z,100.00
2019-01-18T22:33:32.010Z,100.00
2019-01-18T22:36:45.562Z,100.00
2019-01-18T22:39:46.099Z,100.00
2019-01-18T22:42:55.715Z,99.45
2019-01-18T22:45:58.826Z,100.00
2019-01-18T22:48:57.267Z,100.00
2019-01-18T22:52:10.770Z,100.00
2019-01-18T22:55:29.052Z,100.00
2019-01-18T22:58:36.738Z,98.71
2019-01-18T23:02:19.453Z,96.29
2019-01-18T23:05:13.580Z,95.09
2019-01-18T23:08:21.361Z,94.31
2019-01-18T23:11:29.491Z,93.93
2019-01-18T23:14:55.688Z,93.65
2019-01-18T23:18:10.519Z,93.26
2019-01-18T23:21:10.181Z,89.69
2019-01-18T23:24:05.362Z,87.13
2019-01-18T23:27:22.773Z,86.14
2019-01-18T23:30:14.727Z,85.49
2019-01-18T23:33:38.632Z,84.31
2019-01-18T23:36:37.237Z,82.98
2019-01-18T23:39:38.653Z,81.96
2019-01-18T23:42:52.145Z,80.59
2019-01-18T23:45:43.710Z,81.12
2019-01-18T23:48:51.979Z,78.18
2019-01-18T23:51:47.753Z,76.82
2019-01-18T23:54:56.193Z,76.79
2019-01-18T23:58:22.863Z,75.93
